createdAt,value
2019-04-07T00:01:35.710Z,5.30
2019-04-07T00:04:29.893Z,4.57
2019-04-07T00:07:12.403Z,5.20
2019-04-07T00:09:45.530Z,5.20
2019-04-07T00:12:19.126Z,5.17
2019-04-07T00:14:52.211Z,5.77
2019-04-07T00:17:25.460Z,4.80
2019-04-07T00:19:58.663Z,5.30
2019-04-07T00:22:32.375Z,5.30
2019-04-07T00:25:05.420Z,5.17
2019-04-07T00:27:39.145Z,5.67
2019-04-07T00:30:12.088Z,4.83
2019-04-07T00:32:47.659Z,5.30
2019-04-07T00:35:25.974Z,5.30
2019-04-07T00:37:55.195Z,5.23
2019-04-07T00:40:28.417Z,5.07
2019-04-07T00:43:01.607Z,4.60
2019-04-07T00:45:35.317Z,4.50
2019-04-07T00:48:09.055Z,5.43
2019-04-07T00:50:42.270Z,4.67
2019-04-07T00:53:15.637Z,4.50
2019-04-07T00:55:48.642Z,5.17
2019-04-07T00:58:22.603Z,6.23
2019-04-07T01:00:55.532Z,5.07
2019-04-07T01:03:29.112Z,4.70
2019-04-07T01:06:02.388Z,5.33
2019-04-07T01:08:36.073Z,4.60
2019-04-07T01:11:09.696Z,4.57
2019-04-07T01:13:42.999Z,4.93
2019-04-07T01:16:17.315Z,5.00
2019-04-07T01:18:51.996Z,4.97
2019-04-07T01:21:25.176Z,5.93
2019-04-07T01:24:18.022Z,6.93
2019-04-07T01:26:51.054Z,5.63
2019-04-07T01:29:25.634Z,4.70
2019-04-07T01:31:58.635Z,5.80
2019-04-07T01:34:31.857Z,5.63
2019-04-07T01:37:05.551Z,5.63
2019-04-07T01:39:39.437Z,6.13
2019-04-07T01:42:29.050Z,6.47
2019-04-07T01:45:24.286Z,5.80
2019-04-07T01:48:11.395Z,5.80
2019-04-07T01:50:51.864Z,5.63
2019-04-07T01:53:33.371Z,7.13
2019-04-07T01:56:26.326Z,7.63
2019-04-07T01:59:01.504Z,6.53
2019-04-07T02:01:36.590Z,6.77
2019-04-07T02:04:17.087Z,6.13
2019-04-07T02:07:00.822Z,6.57
2019-04-07T02:09:39.139Z,7.50
2019-04-07T02:15:42.148Z,6.03
2019-04-07T02:18:32.845Z,7.53
2019-04-07T02:21:09.761Z,5.80
2019-04-07T02:24:15.788Z,6.13
2019-04-07T02:27:06.459Z,7.03
2019-04-07T02:29:41.510Z,5.80
2019-04-07T02:32:17.354Z,7.47
2019-04-07T02:34:54.946Z,6.13
2019-04-07T02:37:38.751Z,5.60
2019-04-07T02:40:16.168Z,6.77
2019-04-07T02:42:55.994Z,6.10
2019-04-07T02:45:41.092Z,6.27
2019-04-07T02:48:18.295Z,7.00
2019-04-07T02:50:57.026Z,5.90
2019-04-07T02:53:31.659Z,5.97
2019-04-07T02:56:16.595Z,5.90
2019-04-07T02:58:55.079Z,6.00
2019-04-07T03:01:38.877Z,5.87
2019-04-07T03:04:29.301Z,5.13
2019-04-07T03:07:04.780Z,5.30
2019-04-07T03:09:57.270Z,5.37
2019-04-07T03:12:44.244Z,7.07
2019-04-07T03:15:21.117Z,6.00
2019-04-07T03:18:04.805Z,5.67
2019-04-07T03:20:40.292Z,6.13
2019-04-07T03:23:31.644Z,5.53
2019-04-07T03:26:09.515Z,5.50
2019-04-07T03:29:00.067Z,5.90
2019-04-07T03:31:38.568Z,6.20
2019-04-07T03:34:20.370Z,5.87
2019-04-07T03:37:15.180Z,6.10
2019-04-07T03:39:47.852Z,6.50
2019-04-07T03:42:31.546Z,5.63
2019-04-07T03:45:10.099Z,5.83
2019-04-07T03:47:47.704Z,5.00
2019-04-07T03:50:29.670Z,5.37
2019-04-07T03:53:13.034Z,5.87
2019-04-07T03:55:59.825Z,5.53
2019-04-07T03:58:50.709Z,5.93
2019-04-07T04:01:35.386Z,5.90
2019-04-07T04:04:19.160Z,5.73
2019-04-07T04:07:00.146Z,6.60
2019-04-07T04:09:49.716Z,5.40
2019-04-07T04:12:42.340Z,5.70
2019-04-07T04:15:26.287Z,5.97
2019-04-07T04:17:59.771Z,6.00
2019-04-07T04:20:34.408Z,6.67
2019-04-07T04:23:08.968Z,5.83
2019-04-07T04:25:45.385Z,7.10
2019-04-07T04:28:22.002Z,5.87
2019-04-07T04:30:59.882Z,5.50
2019-04-07T04:33:33.303Z,6.13
2019-04-07T04:36:06.558Z,5.17
2019-04-07T04:38:40.474Z,6.43
2019-04-07T04:41:13.835Z,6.03
2019-04-07T04:43:49.840Z,6.37
2019-04-07T04:46:22.684Z,6.57
2019-04-07T04:48:58.887Z,5.83
2019-04-07T04:51:34.891Z,7.00
2019-04-07T04:54:05.610Z,5.90
2019-04-07T04:56:39.430Z,6.37
2019-04-07T04:59:13.325Z,5.73
2019-04-07T05:01:46.441Z,6.10
2019-04-07T05:07:24.416Z,6.67
2019-04-07T05:10:10.238Z,5.83
2019-04-07T05:12:43.696Z,5.57
2019-04-07T05:15:20.997Z,5.67
2019-04-07T05:18:00.351Z,5.77
2019-04-07T05:20:37.672Z,7.43
2019-04-07T05:23:10.897Z,6.73
2019-04-07T05:25:48.093Z,6.53
2019-04-07T05:28:21.283Z,6.90
2019-04-07T05:30:59.959Z,5.30
2019-04-07T05:33:34.489Z,6.53
2019-04-07T05:36:11.213Z,6.30
2019-04-07T05:38:45.496Z,5.87
2019-04-07T05:41:18.948Z,6.33
2019-04-07T05:43:52.434Z,6.67
2019-04-07T05:46:28.068Z,6.43
2019-04-07T05:49:00.530Z,6.77
2019-04-07T05:51:34.460Z,6.53
2019-04-07T05:54:08.102Z,7.03
2019-04-07T05:56:41.541Z,6.70
2019-04-07T05:59:15.551Z,6.13
2019-04-07T06:01:51.616Z,8.30
2019-04-07T06:04:23.678Z,7.87
2019-04-07T06:06:57.095Z,7.40
2019-04-07T06:09:32.839Z,6.93
2019-04-07T06:12:08.472Z,6.40
2019-04-07T06:14:38.933Z,6.90
2019-04-07T06:17:12.438Z,7.50
2019-04-07T06:19:45.507Z,9.10
2019-04-07T06:22:20.774Z,7.23
2019-04-07T06:24:53.804Z,6.73
2019-04-07T06:27:28.967Z,5.70
2019-04-07T06:30:02.433Z,5.90
2019-04-07T06:32:37.574Z,7.37
2019-04-07T06:35:13.302Z,7.90
2019-04-07T06:37:47.658Z,7.03
2019-04-07T06:40:22.207Z,6.93
2019-04-07T06:42:55.721Z,6.63
2019-04-07T06:45:36.508Z,6.53
2019-04-07T06:48:11.341Z,7.33
2019-04-07T06:50:58.401Z,7.40
2019-04-07T06:53:43.136Z,7.87
2019-04-07T06:56:20.845Z,7.57
2019-04-07T06:59:11.886Z,7.10
2019-04-07T07:01:57.791Z,7.33
2019-04-07T07:04:47.104Z,6.17
2019-04-07T07:07:21.621Z,7.10
2019-04-07T07:10:06.520Z,7.27
2019-04-07T07:12:42.043Z,9.67
2019-04-07T07:15:17.897Z,7.20
2019-04-07T07:17:58.576Z,7.20
2019-04-07T07:20:34.293Z,6.77
2019-04-07T07:23:13.305Z,6.87
2019-04-07T07:25:46.662Z,7.77
2019-04-07T07:28:24.507Z,6.80
2019-04-07T07:31:04.546Z,7.07
2019-04-07T07:33:40.452Z,7.07
2019-04-07T07:36:18.111Z,7.90
2019-04-07T07:38:56.316Z,7.03
2019-04-07T07:41:23.306Z,7.13
2019-04-07T07:44:00.652Z,9.27
2019-04-07T07:46:33.370Z,6.73
2019-04-07T07:49:08.655Z,7.57
2019-04-07T07:51:46.406Z,7.17
2019-04-07T07:54:18.367Z,6.83
2019-04-07T07:56:52.452Z,8.33
2019-04-07T07:59:25.777Z,8.10
2019-04-07T08:01:59.009Z,7.37
2019-04-07T08:04:33.461Z,6.73
2019-04-07T08:07:10.809Z,7.47
2019-04-07T08:09:42.030Z,7.87
2019-04-07T08:12:17.957Z,7.40
2019-04-07T08:14:55.551Z,7.40
2019-04-07T08:17:27.785Z,7.23
2019-04-07T08:20:01.064Z,7.30
2019-04-07T08:22:40.636Z,8.40
2019-04-07T08:25:09.731Z,8.17
2019-04-07T08:27:43.208Z,7.37
2019-04-07T08:30:16.354Z,7.93
2019-04-07T08:32:50.126Z,7.67
2019-04-07T08:35:23.308Z,8.80
2019-04-07T08:38:01.480Z,9.23
2019-04-07T08:40:36.507Z,7.93
2019-04-07T08:43:08.609Z,8.13
2019-04-07T08:45:42.433Z,8.70
2019-04-07T08:48:18.216Z,8.73
2019-04-07T08:50:53.312Z,7.77
2019-04-07T08:53:27.388Z,8.93
2019-04-07T08:56:00.160Z,10.27
2019-04-07T08:58:38.449Z,7.77
2019-04-07T09:01:08.534Z,9.03
2019-04-07T09:03:44.486Z,8.57
2019-04-07T09:06:16.354Z,10.77
2019-04-07T09:08:49.803Z,10.60
2019-04-07T09:11:27.239Z,8.73
2019-04-07T09:14:00.572Z,9.30
2019-04-07T09:16:44.725Z,8.80
2019-04-07T09:19:20.329Z,9.80
2019-04-07T09:21:57.725Z,9.33
2019-04-07T09:24:38.570Z,9.80
2019-04-07T09:27:27.866Z,9.97
2019-04-07T09:30:02.569Z,10.03
2019-04-07T09:32:42.801Z,10.00
2019-04-07T09:35:29.862Z,10.93
2019-04-07T09:38:16.438Z,10.70
2019-04-07T09:40:51.602Z,10.37
2019-04-07T09:43:32.115Z,10.20
2019-04-07T09:46:09.332Z,11.67
2019-04-07T09:48:42.990Z,10.57
2019-04-07T09:51:33.098Z,11.03
2019-04-07T09:54:07.687Z,10.07
2019-04-07T09:56:45.051Z,9.83
2019-04-07T09:59:25.853Z,10.40
2019-04-07T10:02:16.226Z,11.03
2019-04-07T10:04:50.770Z,9.77
2019-04-07T10:07:44.001Z,9.73
2019-04-07T10:10:19.182Z,11.13
2019-04-07T10:13:11.092Z,10.00
2019-04-07T10:15:45.734Z,10.37
2019-04-07T10:18:33.654Z,10.60
2019-04-07T10:21:07.581Z,10.63
2019-04-07T10:23:45.638Z,11.23
2019-04-07T10:26:37.971Z,11.30
2019-04-07T10:29:12.763Z,11.40
2019-04-07T10:32:06.309Z,10.13
2019-04-07T10:34:48.480Z,10.97
2019-04-07T10:37:28.595Z,10.67
2019-04-07T10:40:17.465Z,11.60
2019-04-07T10:43:01.393Z,11.27
2019-04-07T10:45:44.850Z,11.57
2019-04-07T10:48:35.215Z,11.03
2019-04-07T10:51:19.680Z,11.07
2019-04-07T10:53:54.922Z,11.33
2019-04-07T10:56:37.309Z,13.37
2019-04-07T10:59:34.182Z,12.63
2019-04-07T11:02:20.169Z,11.23
2019-04-07T11:05:11.985Z,12.07
2019-04-07T11:07:47.128Z,12.20
2019-04-07T11:10:37.330Z,11.43
2019-04-07T11:13:23.237Z,10.97
2019-04-07T11:15:58.047Z,9.70
2019-04-07T11:18:49.060Z,11.43
2019-04-07T11:21:30.303Z,11.10
2019-04-07T11:24:10.796Z,11.70
2019-04-07T11:26:51.699Z,11.97
2019-04-07T11:29:27.337Z,11.83
2019-04-07T11:32:17.841Z,12.07
2019-04-07T11:35:02.928Z,11.20
2019-04-07T11:37:38.458Z,11.33
2019-04-07T11:40:22.576Z,10.17
2019-04-07T11:43:07.132Z,10.60
2019-04-07T11:46:02.267Z,10.97
2019-04-07T11:48:35.461Z,11.30
2019-04-07T11:51:12.936Z,11.97
2019-04-07T11:54:01.626Z,12.10
2019-04-07T11:56:37.127Z,11.50
2019-04-07T11:59:14.756Z,11.20
2019-04-07T12:01:50.146Z,10.57
2019-04-07T12:04:25.179Z,9.90
2019-04-07T12:07:03.482Z,10.27
2019-04-07T12:10:08.286Z,11.37
2019-04-07T12:12:57.859Z,10.50
2019-04-07T12:15:48.867Z,10.30
2019-04-07T12:18:28.513Z,10.90
2019-04-07T12:21:07.520Z,9.83
2019-04-07T12:23:41.355Z,10.37
2019-04-07T12:26:17.071Z,10.50
2019-04-07T12:28:58.065Z,10.60
2019-04-07T12:31:44.955Z,10.07
2019-04-07T12:34:28.630Z,9.00
2019-04-07T12:37:19.639Z,9.83
2019-04-07T12:39:56.751Z,8.83
2019-04-07T12:42:48.206Z,10.23
2019-04-07T12:45:26.590Z,10.00
2019-04-07T12:48:13.372Z,9.03
2019-04-07T12:50:54.132Z,9.43
2019-04-07T12:53:45.429Z,8.87
2019-04-07T12:56:20.319Z,10.20
2019-04-07T12:59:06.897Z,9.67
2019-04-07T13:02:01.409Z,10.27
2019-04-07T13:04:41.809Z,10.00
2019-04-07T13:07:32.514Z,9.60
2019-04-07T13:10:16.584Z,8.83
2019-04-07T13:13:06.867Z,9.43
2019-04-07T13:15:58.171Z,9.93
2019-04-07T13:18:39.422Z,10.07
2019-04-07T13:21:22.378Z,10.00
2019-04-07T13:23:59.424Z,8.73
2019-04-07T13:26:40.069Z,10.50
2019-04-07T13:29:31.334Z,9.27
2019-04-07T13:32:18.734Z,9.50
2019-04-07T13:35:02.660Z,9.57
2019-04-07T13:37:38.354Z,8.90
2019-04-07T13:40:22.546Z,9.97
2019-04-07T13:43:15.005Z,8.90
2019-04-07T13:45:53.733Z,10.27
2019-04-07T13:48:37.938Z,10.77
2019-04-07T13:51:13.216Z,9.13
2019-04-07T13:54:05.426Z,10.20
2019-04-07T13:56:39.708Z,9.63
2019-04-07T13:59:16.625Z,8.63
2019-04-07T14:01:55.396Z,10.27
2019-04-07T14:04:38.068Z,9.00
2019-04-07T14:07:19.769Z,9.17
2019-04-07T14:10:13.210Z,9.40
2019-04-07T14:12:57.570Z,9.53
2019-04-07T14:15:40.931Z,9.27
2019-04-07T14:18:21.812Z,8.70
2019-04-07T14:20:56.334Z,9.07
2019-04-07T14:23:47.561Z,8.97
2019-04-07T14:26:22.279Z,8.63
2019-04-07T14:28:59.876Z,9.43
2019-04-07T14:31:37.870Z,8.47
2019-04-07T14:34:15.719Z,7.57
2019-04-07T14:36:53.487Z,7.60
2019-04-07T14:39:43.458Z,8.43
2019-04-07T14:42:32.538Z,8.53
2019-04-07T14:45:16.743Z,8.03
2019-04-07T14:48:07.904Z,8.70
2019-04-07T14:50:46.212Z,8.17
2019-04-07T14:53:23.085Z,7.63
2019-04-07T14:55:58.196Z,8.30
2019-04-07T14:58:48.336Z,7.40
2019-04-07T15:01:24.474Z,7.70
2019-04-07T15:03:57.679Z,8.17
2019-04-07T15:06:33.261Z,7.40
2019-04-07T15:09:18.853Z,8.23
2019-04-07T15:11:54.356Z,8.50
2019-04-07T15:14:30.914Z,7.57
2019-04-07T15:17:03.501Z,7.73
2019-04-07T15:19:39.742Z,9.13
2019-04-07T15:22:13.524Z,9.10
2019-04-07T15:24:46.411Z,8.27
2019-04-07T15:27:23.115Z,7.70
2019-04-07T15:29:53.882Z,7.23
2019-04-07T15:32:29.796Z,7.13
2019-04-07T15:35:02.283Z,7.33
2019-04-07T15:37:37.433Z,6.93
2019-04-07T15:40:10.811Z,7.47
2019-04-07T15:42:48.848Z,7.20
2019-04-07T15:45:20.609Z,7.07
2019-04-07T15:47:56.361Z,7.03
2019-04-07T15:50:30.458Z,6.50
2019-04-07T15:53:04.955Z,7.23
2019-04-07T15:55:47.844Z,7.03
2019-04-07T15:58:13.461Z,6.93
2019-04-07T16:00:48.599Z,6.90
2019-04-07T16:03:22.307Z,6.30
2019-04-07T16:05:55.873Z,5.43
2019-04-07T16:08:30.788Z,5.47
2019-04-07T16:11:03.791Z,6.37
2019-04-07T16:13:39.042Z,5.73
2019-04-07T16:16:13.411Z,6.17
2019-04-07T16:18:46.942Z,5.63
2019-04-07T16:21:20.655Z,5.83
2019-04-07T16:23:55.548Z,6.43
2019-04-07T16:26:30.275Z,6.33
2019-04-07T16:29:03.398Z,5.40
2019-04-07T16:31:36.547Z,5.50
2019-04-07T16:34:10.390Z,5.60
2019-04-07T16:36:43.903Z,5.50
2019-04-07T16:39:16.734Z,6.00
2019-04-07T16:41:50.171Z,6.43
2019-04-07T16:44:24.505Z,6.63
2019-04-07T16:47:01.627Z,6.90
2019-04-07T16:49:32.679Z,6.80
2019-04-07T16:52:06.729Z,7.03
2019-04-07T16:54:43.315Z,6.47
2019-04-07T16:57:15.264Z,7.27
2019-04-07T16:59:53.078Z,7.03
2019-04-07T17:02:26.702Z,5.93
2019-04-07T17:05:01.537Z,7.03
2019-04-07T17:07:36.008Z,7.10
2019-04-07T17:10:11.090Z,6.77
2019-04-07T17:12:44.843Z,6.70
2019-04-07T17:15:19.321Z,6.87
2019-04-07T17:17:53.377Z,7.33
2019-04-07T17:20:28.409Z,6.80
2019-04-07T17:23:03.773Z,6.43
2019-04-07T17:25:37.576Z,6.47
2019-04-07T17:28:13.584Z,6.53
2019-04-07T17:30:46.467Z,6.30
2019-04-07T17:33:20.911Z,6.43
2019-04-07T17:35:55.294Z,7.13
2019-04-07T17:38:32.918Z,7.13
2019-04-07T17:41:05.856Z,7.77
2019-04-07T17:43:49.430Z,6.70
2019-04-07T17:46:34.096Z,7.57
2019-04-07T17:49:17.311Z,6.93
2019-04-07T17:51:53.074Z,6.80
2019-04-07T17:54:40.728Z,7.13
2019-04-07T17:57:21.472Z,7.03
2019-04-07T18:00:16.416Z,6.10
2019-04-07T18:02:55.574Z,7.13
2019-04-07T18:05:41.755Z,6.03
2019-04-07T18:08:22.380Z,6.20
2019-04-07T18:11:00.737Z,5.80
2019-04-07T18:13:49.753Z,5.37
2019-04-07T18:16:26.268Z,5.33
2019-04-07T18:19:10.871Z,4.93
2019-04-07T18:21:58.054Z,4.40
2019-04-07T18:24:49.520Z,4.63
2019-04-07T18:27:32.899Z,4.97
2019-04-07T18:30:24.746Z,4.67
2019-04-07T18:32:59.699Z,4.10
2019-04-07T18:35:51.365Z,4.73
2019-04-07T18:38:33.061Z,4.63
2019-04-07T18:41:11.192Z,3.90
2019-04-07T18:44:08.619Z,4.10
2019-04-07T18:46:42.356Z,3.90
2019-04-07T18:49:32.948Z,4.43
2019-04-07T18:52:26.572Z,4.10
2019-04-07T18:55:16.260Z,4.13
2019-04-07T18:58:07.530Z,3.93
2019-04-07T19:00:52.105Z,4.43
2019-04-07T19:03:42.835Z,4.10
2019-04-07T19:06:20.343Z,4.50
2019-04-07T19:09:08.160Z,4.07
2019-04-07T19:12:04.198Z,4.00
2019-04-07T19:14:44.305Z,4.93
2019-04-07T19:17:25.587Z,4.00
2019-04-07T19:20:17.198Z,3.40
2019-04-07T19:22:54.389Z,4.13
2019-04-07T19:25:41.717Z,3.77
2019-04-07T19:28:13.946Z,4.20
2019-04-07T19:30:55.165Z,3.87
2019-04-07T19:33:48.188Z,5.03
2019-04-07T19:36:35.185Z,5.53
2019-04-07T19:39:21.382Z,3.93
2019-04-07T19:42:11.250Z,4.60
2019-04-07T19:45:04.412Z,4.10
2019-04-07T19:47:39.527Z,3.83
2019-04-07T19:50:30.764Z,4.40
2019-04-07T19:53:18.525Z,5.00
2019-04-07T19:56:04.887Z,5.20
2019-04-07T19:58:51.613Z,5.23
2019-04-07T20:01:38.400Z,5.63
2019-04-07T20:04:25.470Z,5.30
2019-04-07T20:07:20.130Z,5.07
2019-04-07T20:10:10.989Z,5.10
2019-04-07T20:12:54.357Z,6.00
2019-04-07T20:15:47.332Z,5.93
2019-04-07T20:18:24.820Z,6.33
2019-04-07T20:21:16.405Z,6.03
2019-04-07T20:23:50.120Z,5.97
2019-04-07T20:26:28.393Z,5.60
2019-04-07T20:29:08.954Z,5.97
2019-04-07T20:31:41.364Z,4.60
2019-04-07T20:34:27.433Z,6.03
2019-04-07T20:37:02.470Z,5.07
2019-04-07T20:39:49.011Z,5.37
2019-04-07T20:42:23.633Z,4.37
2019-04-07T20:45:19.265Z,4.80
2019-04-07T20:48:00.295Z,4.80
2019-04-07T20:50:49.579Z,5.50
2019-04-07T20:53:41.494Z,4.67
2019-04-07T20:56:33.849Z,5.07
2019-04-07T20:59:18.252Z,5.37
2019-04-07T21:02:07.491Z,5.60
2019-04-07T21:04:52.121Z,4.97
2019-04-07T21:07:33.431Z,6.17
2019-04-07T21:10:27.466Z,4.60
2019-04-07T21:13:05.089Z,4.07
2019-04-07T21:15:39.959Z,4.97
2019-04-07T21:18:32.802Z,4.30
2019-04-07T21:21:25.724Z,4.80
2019-04-07T21:24:19.892Z,4.13
2019-04-07T21:26:59.421Z,3.80
2019-04-07T21:29:32.110Z,3.97
2019-04-07T21:32:23.346Z,5.23
2019-04-07T21:35:13.541Z,6.07
2019-04-07T21:37:53.898Z,4.33
2019-04-07T21:40:39.566Z,3.80
2019-04-07T21:43:24.278Z,4.87
2019-04-07T21:45:56.937Z,4.80
2019-04-07T21:48:48.039Z,4.57
2019-04-07T21:51:39.823Z,4.20
2019-04-07T21:57:30.709Z,3.97
2019-04-07T22:00:05.408Z,3.83
2019-04-07T22:02:43.027Z,3.57
2019-04-07T22:05:28.649Z,3.87
2019-04-07T22:08:10.892Z,3.77
2019-04-07T22:10:41.581Z,3.60
2019-04-07T22:13:15.399Z,2.87
2019-04-07T22:15:56.350Z,4.83
2019-04-07T22:18:24.526Z,4.10
2019-04-07T22:20:57.934Z,2.97
2019-04-07T22:23:31.763Z,3.13
2019-04-07T22:26:09.444Z,3.13
2019-04-07T22:28:40.261Z,3.27
2019-04-07T22:31:18.438Z,4.10
2019-04-07T22:33:53.493Z,5.00
2019-04-07T22:36:28.039Z,3.13
2019-04-07T22:39:02.403Z,4.17
2019-04-07T22:41:36.990Z,2.03
2019-04-07T22:44:11.806Z,2.90
2019-04-07T22:46:49.462Z,3.93
2019-04-07T22:49:21.880Z,3.30
2019-04-07T22:51:56.318Z,3.47
2019-04-07T22:54:30.972Z,3.23
2019-04-07T22:57:06.111Z,3.07
2019-04-07T22:59:38.489Z,2.63
2019-04-07T23:02:12.371Z,4.03
2019-04-07T23:04:45.439Z,4.10
2019-04-07T23:07:18.928Z,3.80
2019-04-07T23:09:55.956Z,3.37
2019-04-07T23:12:29.441Z,2.17
2019-04-07T23:15:02.343Z,4.23
2019-04-07T23:17:36.489Z,2.97
2019-04-07T23:20:10.863Z,3.60
2019-04-07T23:22:44.566Z,2.90
2019-04-07T23:25:17.838Z,2.60
2019-04-07T23:27:52.141Z,2.73
2019-04-07T23:30:28.183Z,2.80
2019-04-07T23:33:02.058Z,3.50
2019-04-07T23:35:35.252Z,4.33
2019-04-07T23:38:08.697Z,3.80
2019-04-07T23:40:41.983Z,3.83
2019-04-07T23:43:15.284Z,3.40
2019-04-07T23:45:49.676Z,3.13
2019-04-07T23:48:24.292Z,3.30
2019-04-07T23:50:58.246Z,2.87
2019-04-07T23:54:07.446Z,2.63
2019-04-07T23:56:41.500Z,3.20
2019-04-07T23:59:15.164Z,2.20
